Time;durP1;ratioP1;P1;durP2;ratioP2;P2;SDS_P1;SDS_P2;PMS_P1;PMS_P2;Temp;Humidity;BMP_temperature;BMP_pressure;BME280_temperature;BME280_humidity;BME280_pressure;Samples;Min_cycle;Max_cycle;Signal;HPM_P1;HPM_P2
2023/01/26 00:00:00;;;;;;;31.50;13.17;;;-0.30;99.90;;;;;;4439713;28;658733;-69
2023/01/26 00:02:47;;;;;;;37.87;14.80;;;-0.40;99.90;;;;;;4443124;28;658663;-69
2023/01/26 00:05:37;;;;;;;31.77;14.33;;;-0.40;99.90;;;;;;4443774;28;658561;-70
2023/01/26 00:08:24;;;;;;;39.77;16.07;;;-0.40;99.90;;;;;;4440817;28;658305;-69
2023/01/26 00:11:13;;;;;;;32.67;13.60;;;-0.40;99.90;;;;;;4417812;28;659864;-69
2023/01/26 00:14:01;;;;;;;37.67;13.93;;;-0.50;99.90;;;;;;4421496;28;658525;-69
2023/01/26 00:16:48;;;;;;;36.70;14.47;;;-0.60;99.90;;;;;;4443411;28;659381;-69
2023/01/26 00:19:35;;;;;;;32.07;14.30;;;-0.60;99.90;;;;;;4427971;28;658822;-69
2023/01/26 00:22:23;;;;;;;37.10;16.67;;;-0.60;99.90;;;;;;4444321;28;659933;-69
2023/01/26 00:25:10;;;;;;;35.40;14.43;;;-0.60;99.90;;;;;;4433138;28;658938;-69
2023/01/26 00:27:59;;;;;;;34.17;14.60;;;-0.60;99.90;;;;;;4441330;28;659374;-69
2023/01/26 00:30:46;;;;;;;35.80;15.00;;;-0.60;99.90;;;;;;4424956;28;659436;-69
2023/01/26 00:33:34;;;;;;;34.93;15.20;;;-0.70;99.90;;;;;;4450319;28;659079;-69
2023/01/26 00:36:21;;;;;;;34.20;14.53;;;-0.60;99.90;;;;;;4422322;28;658735;-69
2023/01/26 00:39:08;;;;;;;34.50;14.87;;;-0.60;99.90;;;;;;4442362;28;659384;-69
2023/01/26 00:42:09;;;;;;;36.55;14.68;;;-0.60;99.90;;;;;;4424186;28;658855;-69
2023/01/26 00:44:58;;;;;;;37.93;15.73;;;-0.60;99.90;;;;;;4404983;28;659093;-69
2023/01/26 00:47:45;;;;;;;34.20;14.60;;;-0.60;99.90;;;;;;4430439;28;659972;-69
2023/01/26 00:50:33;;;;;;;39.67;15.00;;;-0.60;99.90;;;;;;4440500;28;658272;-70
2023/01/26 00:53:20;;;;;;;36.43;15.17;;;-0.60;99.90;;;;;;4428490;28;658727;-69
2023/01/26 00:56:08;;;;;;;38.10;16.93;;;-0.60;99.90;;;;;;4445197;28;658405;-69
2023/01/26 00:58:55;;;;;;;36.83;15.82;;;-0.60;99.90;;;;;;4422674;28;662278;-69
2023/01/26 01:01:44;;;;;;;42.10;17.07;;;-0.60;99.90;;;;;;4437277;28;659461;-69
2023/01/26 01:04:31;;;;;;;37.13;15.90;;;-0.60;99.90;;;;;;4417824;28;659108;-69
2023/01/26 01:07:18;;;;;;;39.80;17.23;;;-0.60;99.90;;;;;;4442679;28;659857;-69
2023/01/26 01:10:07;;;;;;;42.47;17.30;;;-0.60;99.90;;;;;;4424292;28;658730;-69
2023/01/26 01:12:55;;;;;;;40.63;16.67;;;-0.60;99.90;;;;;;4433818;28;658214;-69
2023/01/26 01:15:42;;;;;;;39.27;17.10;;;-0.60;99.90;;;;;;4419954;28;659364;-69
2023/01/26 01:18:31;;;;;;;34.73;15.83;;;-0.60;99.90;;;;;;4442212;28;658448;-69
2023/01/26 01:21:18;;;;;;;39.93;16.23;;;-0.70;99.90;;;;;;4417443;28;659246;-69
2023/01/26 01:24:06;;;;;;;39.50;15.83;;;-0.70;99.90;;;;;;4420016;28;658462;-69
2023/01/26 01:26:53;;;;;;;38.50;16.43;;;-0.70;99.90;;;;;;4443319;28;660172;-69
2023/01/26 01:29:40;;;;;;;35.97;16.17;;;-0.70;99.90;;;;;;4420655;28;659135;-69
2023/01/26 01:32:27;;;;;;;36.17;16.03;;;-0.70;99.90;;;;;;4438580;28;658859;-69
2023/01/26 01:35:17;;;;;;;39.50;16.80;;;-0.70;99.90;;;;;;4439876;28;658849;-69
2023/01/26 01:38:04;;;;;;;37.23;17.03;;;-0.70;99.90;;;;;;4447994;28;658393;-70
2023/01/26 01:40:51;;;;;;;42.78;17.92;;;-0.70;99.90;;;;;;4429867;28;660459;-69
2023/01/26 01:43:38;;;;;;;43.47;17.33;;;-0.70;99.90;;;;;;4441516;28;659111;-69
2023/01/26 01:46:28;;;;;;;35.40;16.83;;;-0.70;99.90;;;;;;4419848;28;659233;-69
2023/01/26 01:49:18;;;;;;;42.75;17.05;;;-0.70;99.90;;;;;;4425228;28;658979;-69
2023/01/26 01:52:08;;;;;;;37.03;16.43;;;-0.60;99.90;;;;;;4430849;28;658782;-69
2023/01/26 01:54:57;;;;;;;37.13;16.50;;;-0.70;99.90;;;;;;4424354;28;658612;-69
2023/01/26 01:57:46;;;;;;;40.97;17.23;;;-0.70;99.90;;;;;;4438658;28;658423;-69
2023/01/26 02:00:33;;;;;;;41.10;16.23;;;-0.70;99.90;;;;;;4419248;28;659369;-69
2023/01/26 02:03:20;;;;;;;35.35;16.15;;;-0.80;99.90;;;;;;4423133;28;658969;-69
2023/01/26 02:06:10;;;;;;;39.73;16.83;;;-0.80;99.90;;;;;;4437420;28;659540;-69
2023/01/26 02:08:59;;;;;;;42.77;16.93;;;-0.70;99.90;;;;;;4421392;28;659221;-69
2023/01/26 02:11:47;;;;;;;35.53;15.90;;;-0.70;99.90;;;;;;4422310;28;659188;-69
2023/01/26 02:14:34;;;;;;;39.17;17.47;;;-0.70;99.90;;;;;;4444482;28;658452;-69
2023/01/26 02:17:21;;;;;;;39.27;16.27;;;-0.80;99.90;;;;;;4417843;28;658817;-69
2023/01/26 02:20:13;;;;;;;35.23;16.17;;;-0.90;99.90;;;;;;4440062;28;658974;-70
2023/01/26 02:23:02;;;;;;;41.00;17.23;;;-0.90;99.90;;;;;;4402590;28;659931;-70
2023/01/26 02:26:08;;;;;;;36.90;15.73;;;-0.80;99.90;;;;;;4445869;28;658185;-70
2023/01/26 02:28:55;;;;;;;41.20;16.13;;;-0.80;99.90;;;;;;4400277;28;659152;-70
2023/01/26 02:31:42;;;;;;;40.43;16.43;;;-0.80;99.90;;;;;;4445817;28;659152;-69
2023/01/26 02:34:30;;;;;;;40.30;17.23;;;-0.80;99.90;;;;;;4436983;28;659275;-69
2023/01/26 02:37:17;;;;;;;40.57;16.27;;;-0.80;99.90;;;;;;4448255;28;659986;-69
2023/01/26 02:40:07;;;;;;;39.97;16.73;;;-0.80;99.90;;;;;;4439167;28;659599;-69
2023/01/26 02:42:55;;;;;;;41.53;16.77;;;-0.80;99.90;;;;;;4365183;28;658672;-69
2023/01/26 02:45:42;;;;;;;35.50;16.53;;;-0.70;99.90;;;;;;4286848;28;658686;-69
2023/01/26 02:51:34;;;;;;;34.80;16.37;;;-0.70;99.90;;;;;;4414140;28;659028;-70
2023/01/26 02:57:26;;;;;;;34.73;15.50;;;-0.70;99.90;;;;;;4422003;28;659407;-70
2023/01/26 03:00:16;;;;;;;36.25;15.93;;;-0.70;99.90;;;;;;4436982;28;659444;-70
2023/01/26 03:03:06;;;;;;;35.90;16.87;;;-0.70;99.90;;;;;;4418901;28;658547;-69
2023/01/26 03:05:54;;;;;;;39.07;15.57;;;-0.70;99.90;;;;;;4417408;28;659139;-69
2023/01/26 03:08:41;;;;;;;38.67;15.20;;;-0.70;99.90;;;;;;4417207;28;659144;-69
2023/01/26 03:11:40;;;;;;;34.47;15.40;;;-0.70;99.90;;;;;;4441158;28;659509;-70
2023/01/26 03:14:28;;;;;;;38.73;16.30;;;-0.70;99.90;;;;;;4387657;28;658974;-69
2023/01/26 03:17:17;;;;;;;35.00;15.10;;;-0.80;99.90;;;;;;4430840;28;658639;-69
2023/01/26 03:29:20;;;;;;;32.90;14.23;;;-0.80;99.90;;;;;;4412879;28;658934;-69
2023/01/26 03:32:07;;;;;;;34.83;15.23;;;-0.80;99.90;;;;;;4446168;28;659798;-69
2023/01/26 03:34:57;;;;;;;33.97;15.87;;;-0.90;99.90;;;;;;4445346;28;658381;-70
2023/01/26 03:37:44;;;;;;;34.13;15.43;;;-1.00;99.90;;;;;;4441477;28;658522;-70
2023/01/26 03:59:07;;;;;;;33.67;15.67;;;-1.10;99.90;;;;;;4421905;28;658867;-70
2023/01/26 04:08:21;;;;;;;40.05;16.95;;;-0.90;99.90;;;;;;4431173;28;658566;-69
2023/01/26 04:11:08;;;;;;;34.77;16.00;;;-0.80;99.90;;;;;;4415505;28;659293;-70
2023/01/26 04:23:18;;;;;;;34.80;14.97;;;-0.80;99.90;;;;;;4419375;28;658644;-70
2023/01/26 04:26:06;;;;;;;37.67;15.37;;;-1.00;99.90;;;;;;4417280;28;658817;-70
2023/01/26 04:28:53;;;;;;;34.90;15.13;;;-1.00;99.90;;;;;;4441168;28;660621;-70
2023/01/26 04:31:40;;;;;;;40.47;16.10;;;-1.00;99.90;;;;;;4426556;28;658524;-70
2023/01/26 04:34:28;;;;;;;34.03;14.43;;;-1.10;99.90;;;;;;4439574;28;659755;-70
2023/01/26 04:37:15;;;;;;;34.45;15.32;;;-1.00;99.90;;;;;;4429168;28;658568;-70
2023/01/26 04:40:05;;;;;;;35.60;15.17;;;-1.00;99.90;;;;;;4446642;28;659418;-70
2023/01/26 04:42:52;;;;;;;37.93;16.20;;;-1.00;99.90;;;;;;4418233;28;659451;-70
2023/01/26 04:45:39;;;;;;;35.13;15.40;;;-1.10;99.90;;;;;;4443434;28;658336;-70
2023/01/26 04:48:26;;;;;;;36.50;16.58;;;-1.00;99.90;;;;;;4422203;28;659440;-70
2023/01/26 04:51:16;;;;;;;31.90;14.90;;;-1.00;99.90;;;;;;4447900;28;658555;-70
2023/01/26 04:54:03;;;;;;;34.33;15.17;;;-1.00;99.90;;;;;;4425165;28;659414;-69
2023/01/26 04:56:52;;;;;;;31.43;14.70;;;-1.00;99.90;;;;;;4423753;28;659417;-69
2023/01/26 04:59:39;;;;;;;34.42;14.63;;;-1.00;99.90;;;;;;4441650;28;658839;-69
2023/01/26 05:02:26;;;;;;;32.47;14.80;;;-1.00;99.90;;;;;;4427006;28;658687;-69
2023/01/26 05:05:14;;;;;;;35.50;16.00;;;-1.00;99.90;;;;;;4439299;28;658223;-69
2023/01/26 05:08:01;;;;;;;41.38;15.85;;;-1.00;99.90;;;;;;4421104;28;658877;-70
2023/01/26 05:10:48;;;;;;;33.83;14.87;;;-1.10;99.90;;;;;;4443880;28;658948;-70
2023/01/26 05:13:38;;;;;;;32.53;14.37;;;-1.20;99.90;;;;;;4425377;28;658497;-69
2023/01/26 05:16:25;;;;;;;35.30;15.37;;;-1.20;99.90;;;;;;4426547;28;658944;-69
2023/01/26 05:19:12;;;;;;;40.33;18.50;;;-1.10;99.90;;;;;;4437143;28;659734;-70
2023/01/26 05:22:00;;;;;;;41.77;18.90;;;-1.00;99.90;;;;;;4438437;28;659228;-70
2023/01/26 05:24:47;;;;;;;38.30;17.30;;;-1.00;99.90;;;;;;4451771;28;659288;-69
2023/01/26 05:27:35;;;;;;;37.37;16.60;;;-1.00;99.90;;;;;;4447285;28;659020;-69
2023/01/26 05:30:24;;;;;;;52.50;21.73;;;-0.90;99.90;;;;;;4441320;28;659778;-69
2023/01/26 05:33:11;;;;;;;50.43;20.67;;;-0.90;99.90;;;;;;4426081;28;658918;-70
2023/01/26 05:36:00;;;;;;;38.37;18.27;;;-0.90;99.90;;;;;;4447600;28;659125;-69
2023/01/26 05:38:47;;;;;;;40.57;15.97;;;-0.90;99.90;;;;;;4423760;28;659873;-69
2023/01/26 05:41:34;;;;;;;36.83;16.48;;;-0.80;99.90;;;;;;4438962;28;658810;-70
2023/01/26 05:44:21;;;;;;;40.60;17.57;;;-0.80;99.90;;;;;;4416833;28;658514;-69
2023/01/26 05:47:10;;;;;;;70.20;28.40;;;-0.80;99.90;;;;;;4445179;28;658581;-69
2023/01/26 05:49:57;;;;;;;45.70;19.60;;;-0.80;99.90;;;;;;4427644;28;659728;-69
2023/01/26 05:52:45;;;;;;;39.00;18.23;;;-0.70;99.90;;;;;;4446172;28;658315;-70
2023/01/26 05:55:32;;;;;;;47.97;20.17;;;-0.80;99.90;;;;;;4418343;28;658543;-70
2023/01/26 05:58:19;;;;;;;41.70;18.97;;;-0.80;99.90;;;;;;4442152;28;658987;-70
2023/01/26 06:01:07;;;;;;;45.77;20.00;;;-0.80;99.90;;;;;;4423891;28;659012;-70
2023/01/26 06:03:56;;;;;;;38.60;17.23;;;-0.80;99.90;;;;;;4449804;28;658573;-69
2023/01/26 06:06:43;;;;;;;47.57;22.93;;;-0.80;99.90;;;;;;4417184;28;658749;-69
2023/01/26 06:09:31;;;;;;;62.40;29.57;;;-0.80;99.90;;;;;;4415224;28;658221;-70
2023/01/26 06:12:19;;;;;;;60.07;29.07;;;-0.80;99.90;;;;;;4441116;28;658817;-70
2023/01/26 06:15:07;;;;;;;48.07;22.57;;;-0.80;99.90;;;;;;4417307;28;658521;-70
2023/01/26 06:17:54;;;;;;;45.37;20.23;;;-0.80;99.90;;;;;;4447593;28;658384;-70
2023/01/26 06:20:43;;;;;;;32.57;15.93;;;-0.70;99.90;;;;;;4421264;28;660701;-70
2023/01/26 06:23:31;;;;;;;37.67;17.13;;;-0.80;99.90;;;;;;4421395;28;659144;-69
2023/01/26 06:26:18;;;;;;;34.77;15.90;;;-0.80;99.90;;;;;;4436279;28;658905;-69
2023/01/26 06:29:06;;;;;;;36.33;15.37;;;-0.80;99.90;;;;;;4430540;28;658474;-70
2023/01/26 06:31:53;;;;;;;35.93;15.53;;;-0.80;99.90;;;;;;4443651;28;660389;-70
2023/01/26 06:34:40;;;;;;;35.70;15.10;;;-0.80;99.90;;;;;;4421636;28;658772;-70
2023/01/26 06:37:29;;;;;;;39.93;17.90;;;-0.80;99.90;;;;;;4431726;28;659258;-70
2023/01/26 06:40:17;;;;;;;40.37;18.27;;;-0.70;99.90;;;;;;4415683;28;658513;-69
2023/01/26 06:43:05;;;;;;;38.93;18.03;;;-0.60;99.90;;;;;;4436931;28;658845;-69
2023/01/26 06:45:52;;;;;;;37.47;17.50;;;-0.60;99.90;;;;;;4416282;28;659059;-69
2023/01/26 06:48:40;;;;;;;337.43;65.87;;;-0.60;99.90;;;;;;4438545;28;658549;-69
2023/01/26 06:51:46;;;;;;;154.43;45.33;;;-0.60;99.90;;;;;;4437231;28;660272;-69
2023/01/26 06:54:34;;;;;;;42.60;17.90;;;-0.50;99.90;;;;;;4410250;28;660083;-69
2023/01/26 06:57:22;;;;;;;65.03;24.23;;;-0.50;99.90;;;;;;4414799;28;659195;-69
2023/01/26 07:00:11;;;;;;;63.43;25.33;;;-0.50;99.90;;;;;;4441591;28;658398;-69
2023/01/26 07:02:58;;;;;;;69.17;27.67;;;-0.50;99.90;;;;;;4418289;28;660068;-69
2023/01/26 07:05:45;;;;;;;54.30;21.47;;;-0.50;99.90;;;;;;4422174;28;658809;-69
2023/01/26 07:08:33;;;;;;;64.30;23.17;;;-0.50;99.90;;;;;;4439212;28;659130;-69
2023/01/26 07:11:24;;;;;;;58.73;24.80;;;-0.50;99.90;;;;;;4427670;28;658515;-69
2023/01/26 07:14:11;;;;;;;74.33;31.30;;;-0.40;99.90;;;;;;4416526;28;658763;-69
2023/01/26 07:16:58;;;;;;;54.63;23.17;;;-0.50;99.90;;;;;;4440484;28;659727;-69
2023/01/26 07:19:45;;;;;;;52.30;21.80;;;-0.50;99.90;;;;;;4415309;28;658856;-69
2023/01/26 07:22:32;;;;;;;56.57;22.60;;;-0.50;99.90;;;;;;4438171;28;658395;-69
2023/01/26 07:25:20;;;;;;;52.63;20.20;;;-0.50;99.90;;;;;;4435476;28;658738;-69
2023/01/26 07:28:09;;;;;;;45.40;18.50;;;-0.40;99.90;;;;;;4445130;28;659562;-69
2023/01/26 07:30:57;;;;;;;39.30;16.63;;;-0.40;99.90;;;;;;4416043;28;658717;-69
2023/01/26 07:33:45;;;;;;;39.60;17.00;;;-0.40;99.90;;;;;;4434601;28;659113;-69
2023/01/26 07:36:32;;;;;;;39.90;17.30;;;-0.40;99.90;;;;;;4442981;28;658317;-69
2023/01/26 07:39:20;;;;;;;39.90;18.03;;;-0.50;99.90;;;;;;4436116;28;658691;-69
2023/01/26 07:42:08;;;;;;;38.07;17.03;;;-0.40;99.90;;;;;;4443850;28;659776;-69
2023/01/26 07:44:58;;;;;;;42.23;18.30;;;-0.40;99.90;;;;;;4424396;28;658467;-69
2023/01/26 07:47:45;;;;;;;36.37;16.23;;;-0.40;99.90;;;;;;4424499;28;658374;-69
2023/01/26 07:50:33;;;;;;;42.43;17.77;;;-0.40;99.90;;;;;;4441500;28;659164;-69
2023/01/26 07:53:21;;;;;;;40.10;17.60;;;-0.40;99.90;;;;;;4427050;28;658830;-69
2023/01/26 07:56:09;;;;;;;36.47;16.23;;;-0.30;99.90;;;;;;4430610;28;658761;-69
2023/01/26 07:58:57;;;;;;;38.90;17.03;;;-0.30;99.90;;;;;;4424734;28;658513;-69
2023/01/26 08:01:45;;;;;;;40.03;16.63;;;-0.30;99.90;;;;;;4437396;28;658511;-69
2023/01/26 08:04:32;;;;;;;38.00;16.50;;;-0.30;99.90;;;;;;4413941;28;659744;-69
2023/01/26 08:07:20;;;;;;;42.07;17.00;;;-0.30;99.90;;;;;;4425758;28;658903;-69
2023/01/26 08:10:09;;;;;;;41.07;18.30;;;-0.30;99.90;;;;;;4443990;28;658734;-69
2023/01/26 08:12:56;;;;;;;36.13;15.53;;;-0.30;99.90;;;;;;4404145;28;659213;-69
2023/01/26 08:15:43;;;;;;;36.50;15.97;;;-0.30;99.90;;;;;;4440919;28;659060;-69
2023/01/26 08:18:32;;;;;;;39.03;16.57;;;-0.30;99.90;;;;;;4426091;28;659114;-69
2023/01/26 08:21:19;;;;;;;61.97;27.70;;;-0.30;99.90;;;;;;4437331;28;658462;-69
2023/01/26 08:24:07;;;;;;;42.90;19.00;;;-0.20;99.90;;;;;;4417153;28;658424;-69
2023/01/26 08:26:54;;;;;;;42.70;18.67;;;-0.10;99.90;;;;;;4442298;28;658382;-69
2023/01/26 08:29:41;;;;;;;44.93;18.77;;;-0.10;99.90;;;;;;4415793;28;658656;-69
2023/01/26 08:32:29;;;;;;;41.67;18.33;;;-0.10;99.90;;;;;;4431005;28;658793;-69
2023/01/26 08:35:17;;;;;;;48.43;18.07;;;-0.10;99.90;;;;;;4414399;28;659034;-69
2023/01/26 08:38:05;;;;;;;42.07;18.27;;;-0.10;99.90;;;;;;4435461;28;658518;-69
2023/01/26 08:40:53;;;;;;;47.03;18.80;;;0.00;99.90;;;;;;4443899;28;660022;-69
2023/01/26 08:43:40;;;;;;;49.10;19.20;;;-0.10;99.90;;;;;;4415730;28;658291;-69
2023/01/26 08:46:27;;;;;;;43.00;19.30;;;-0.10;99.90;;;;;;4421210;28;658912;-70
2023/01/26 08:49:15;;;;;;;47.10;20.20;;;0.00;99.90;;;;;;4374213;28;658644;-70
2023/01/26 08:52:04;;;;;;;59.27;23.53;;;0.00;99.90;;;;;;4414953;28;658069;-69
2023/01/26 08:54:51;;;;;;;46.20;20.20;;;0.00;99.90;;;;;;4422872;28;657926;-69
2023/01/26 08:57:39;;;;;;;48.93;20.30;;;0.00;99.90;;;;;;4442508;28;657373;-69
2023/01/26 09:00:26;;;;;;;43.03;18.77;;;0.00;99.90;;;;;;4413540;28;657339;-69
2023/01/26 09:03:13;;;;;;;46.93;20.27;;;0.10;99.90;;;;;;4434504;28;659058;-70
2023/01/26 09:06:01;;;;;;;42.73;18.60;;;0.10;99.90;;;;;;4424877;28;657835;-69
2023/01/26 09:08:49;;;;;;;41.47;19.03;;;0.20;99.90;;;;;;4444245;28;658181;-69
2023/01/26 09:11:37;;;;;;;46.40;19.83;;;0.10;99.90;;;;;;4420005;28;657580;-69
2023/01/26 09:14:24;;;;;;;43.83;20.17;;;0.20;99.90;;;;;;4440686;28;657245;-69
2023/01/26 09:17:11;;;;;;;45.00;19.50;;;0.30;99.90;;;;;;4412513;28;657718;-69
2023/01/26 09:19:58;;;;;;;45.45;20.23;;;0.40;99.90;;;;;;4443184;28;658021;-69
2023/01/26 09:22:46;;;;;;;53.30;20.70;;;0.40;99.90;;;;;;4415623;28;657601;-69
2023/01/26 09:25:37;;;;;;;45.00;20.63;;;0.50;99.90;;;;;;4436400;28;658652;-69
2023/01/26 09:28:24;;;;;;;40.30;18.60;;;0.50;99.90;;;;;;4419986;28;657471;-69
2023/01/26 09:31:12;;;;;;;40.53;19.30;;;0.60;99.90;;;;;;4421495;28;658824;-69
2023/01/26 09:34:00;;;;;;;49.58;23.05;;;0.60;99.90;;;;;;4419491;28;657381;-69
2023/01/26 09:36:47;;;;;;;49.00;21.57;;;0.60;99.90;;;;;;4443487;28;658642;-69
2023/01/26 09:39:35;;;;;;;45.90;20.63;;;0.70;99.90;;;;;;4437511;28;657228;-70
2023/01/26 09:42:32;;;;;;;43.20;17.43;;;0.70;99.90;;;;;;4440577;28;657234;-69
2023/01/26 09:45:24;;;;;;;45.47;19.27;;;0.70;99.90;;;;;;4418645;28;657862;-69
2023/01/26 09:48:21;;;;;;;43.20;20.13;;;0.60;99.90;;;;;;4387746;28;658156;-69
2023/01/26 09:51:10;;;;;;;48.23;20.87;;;0.60;99.90;;;;;;4410769;28;657564;-69
2023/01/26 09:53:59;;;;;;;46.33;21.03;;;0.60;99.90;;;;;;4418206;28;659828;-69
2023/01/26 09:56:46;;;;;;;45.15;20.40;;;0.60;99.90;;;;;;4416975;28;657457;-69
2023/01/26 09:59:38;;;;;;;49.87;22.10;;;0.70;99.90;;;;;;4438021;28;658015;-69
2023/01/26 10:02:35;;;;;;;45.63;21.00;;;0.70;99.90;;;;;;4399284;28;657663;-69
2023/01/26 10:05:30;;;;;;;42.93;18.70;;;0.70;99.90;;;;;;4393265;28;657733;-69
2023/01/26 10:08:19;;;;;;;44.03;20.27;;;0.70;99.90;;;;;;4392264;28;658311;-69
2023/01/26 10:11:12;;;;;;;46.40;19.37;;;0.70;99.90;;;;;;4423880;28;657594;-69
2023/01/26 10:14:01;;;;;;;39.83;18.33;;;0.70;99.90;;;;;;4416378;28;657234;-69
2023/01/26 10:16:51;;;;;;;40.87;19.57;;;0.70;99.90;;;;;;4418886;28;658241;-69
2023/01/26 10:19:41;;;;;;;43.27;19.33;;;0.80;99.90;;;;;;4410460;28;658498;-69
2023/01/26 10:22:31;;;;;;;42.43;18.93;;;0.80;99.90;;;;;;4414445;28;658519;-69
2023/01/26 10:25:20;;;;;;;45.20;19.93;;;0.70;99.90;;;;;;4411786;28;657554;-69
2023/01/26 10:28:13;;;;;;;44.50;18.77;;;0.70;99.90;;;;;;4412299;28;658359;-69
2023/01/26 10:31:00;;;;;;;48.67;19.33;;;0.80;99.90;;;;;;4396615;28;658099;-69
2023/01/26 10:33:51;;;;;;;40.43;19.67;;;0.70;99.90;;;;;;4438570;28;659134;-69
2023/01/26 10:36:40;;;;;;;43.70;19.93;;;0.70;99.90;;;;;;4413561;28;658018;-69
2023/01/26 10:39:27;;;;;;;40.90;18.90;;;0.70;99.90;;;;;;4413641;28;658150;-69
2023/01/26 10:42:18;;;;;;;44.07;18.10;;;0.70;99.90;;;;;;4433110;28;657511;-69
2023/01/26 10:45:06;;;;;;;47.30;18.23;;;0.70;99.90;;;;;;4410813;28;658334;-69
2023/01/26 10:48:04;;;;;;;37.57;17.47;;;0.70;99.90;;;;;;4439406;28;659338;-69
2023/01/26 10:50:53;;;;;;;37.17;17.67;;;0.80;99.90;;;;;;4391008;28;657870;-69
2023/01/26 10:53:40;;;;;;;40.78;18.08;;;0.80;99.90;;;;;;4409487;28;657929;-69
2023/01/26 10:56:27;;;;;;;37.13;16.27;;;0.80;99.90;;;;;;4443947;28;658468;-69
2023/01/26 10:59:19;;;;;;;39.40;16.90;;;0.80;99.90;;;;;;4432375;28;657513;-69
2023/01/26 11:02:20;;;;;;;42.43;18.57;;;0.80;99.90;;;;;;4415775;28;658775;-69
2023/01/26 11:05:16;;;;;;;43.60;18.40;;;0.80;99.90;;;;;;4381275;28;658253;-69
2023/01/26 11:08:09;;;;;;;48.90;18.30;;;0.90;99.90;;;;;;4420997;28;658111;-69
2023/01/26 11:10:57;;;;;;;43.03;20.33;;;0.90;99.90;;;;;;4415483;28;658006;-69
2023/01/26 11:13:44;;;;;;;47.27;22.27;;;0.90;99.90;;;;;;4432483;28;657260;-69
2023/01/26 11:16:31;;;;;;;39.00;18.20;;;1.00;99.90;;;;;;4415273;28;657380;-69
2023/01/26 11:19:24;;;;;;;50.15;22.58;;;1.00;99.90;;;;;;4430714;28;657472;-69
2023/01/26 11:22:13;;;;;;;44.43;20.00;;;1.10;99.90;;;;;;4394755;28;658401;-69
2023/01/26 11:25:07;;;;;;;62.27;29.27;;;1.10;99.90;;;;;;4420465;28;657441;-69
2023/01/26 11:28:05;;;;;;;61.53;27.27;;;1.10;99.90;;;;;;4430864;28;658134;-68
2023/01/26 11:30:59;;;;;;;57.73;25.00;;;1.10;99.90;;;;;;4394605;28;658717;-69
2023/01/26 11:33:51;;;;;;;51.30;22.73;;;1.20;99.90;;;;;;4391992;28;657813;-69
2023/01/26 11:36:43;;;;;;;56.53;25.00;;;1.20;99.90;;;;;;4414300;28;658572;-69
2023/01/26 11:39:33;;;;;;;67.77;28.47;;;1.30;99.90;;;;;;4409924;28;658022;-69
2023/01/26 11:42:24;;;;;;;47.37;22.43;;;1.20;99.90;;;;;;4421344;28;657676;-69
2023/01/26 11:45:17;;;;;;;46.17;20.77;;;1.30;99.90;;;;;;4420698;28;657949;-69
2023/01/26 11:48:12;;;;;;;46.97;20.03;;;1.40;99.90;;;;;;4408308;28;658033;-69
2023/01/26 11:51:03;;;;;;;46.63;20.73;;;1.40;99.90;;;;;;4441764;28;658030;-69
2023/01/26 11:54:13;;;;;;;46.30;20.50;;;1.50;99.90;;;;;;4422466;28;657868;-69
2023/01/26 11:57:04;;;;;;;46.73;19.47;;;1.60;99.90;;;;;;4393955;28;657587;-69
2023/01/26 11:59:54;;;;;;;45.35;20.25;;;1.60;99.90;;;;;;4420758;28;657350;-69
2023/01/26 12:02:42;;;;;;;46.43;19.53;;;1.60;99.90;;;;;;4416474;28;657689;-69
2023/01/26 12:05:34;;;;;;;45.30;19.93;;;1.60;99.90;;;;;;4441233;28;658638;-69
2023/01/26 12:08:23;;;;;;;44.83;20.20;;;1.50;99.90;;;;;;4419521;28;657703;-70
2023/01/26 12:11:22;;;;;;;45.23;18.00;;;1.50;99.90;;;;;;4427736;28;657516;-69
2023/01/26 12:14:17;;;;;;;65.87;24.20;;;1.40;99.90;;;;;;4414770;28;658093;-70
2023/01/26 12:17:27;;;;;;;40.87;19.40;;;1.40;99.90;;;;;;4410485;28;658931;-69
2023/01/26 12:20:24;;;;;;;43.10;19.55;;;1.30;99.90;;;;;;4413930;28;658112;-69
2023/01/26 12:23:13;;;;;;;50.87;22.30;;;1.40;99.90;;;;;;4399138;28;658056;-69
2023/01/26 12:26:01;;;;;;;47.40;21.83;;;1.40;99.90;;;;;;4417245;28;657479;-69
2023/01/26 12:28:50;;;;;;;66.43;29.77;;;1.50;99.90;;;;;;4439113;28;658407;-69
2023/01/26 12:31:41;;;;;;;46.97;22.17;;;1.60;99.90;;;;;;4418194;28;658533;-69
2023/01/26 12:34:32;;;;;;;38.23;18.53;;;1.70;99.90;;;;;;4412886;28;658450;-69
2023/01/26 12:37:31;;;;;;;40.73;18.67;;;1.70;99.90;;;;;;4408492;28;657586;-69
2023/01/26 12:40:24;;;;;;;41.93;17.90;;;1.60;99.90;;;;;;4413433;28;658113;-69
2023/01/26 12:43:19;;;;;;;39.13;18.50;;;1.50;99.90;;;;;;4420773;28;658070;-69
2023/01/26 12:46:07;;;;;;;40.90;18.23;;;1.30;99.90;;;;;;4411028;28;658324;-69
2023/01/26 12:48:56;;;;;;;43.43;19.27;;;1.30;99.90;;;;;;4435519;28;658691;-69
2023/01/26 12:51:46;;;;;;;43.77;19.37;;;1.20;99.90;;;;;;4416024;28;658061;-69
2023/01/26 12:54:36;;;;;;;39.47;18.40;;;1.30;99.90;;;;;;4418428;28;658672;-69
2023/01/26 12:57:25;;;;;;;44.57;18.83;;;1.40;99.90;;;;;;4404886;28;657852;-69
2023/01/26 13:00:19;;;;;;;43.63;19.47;;;1.40;99.90;;;;;;4409919;28;659012;-69
2023/01/26 13:03:15;;;;;;;47.10;19.77;;;1.50;99.90;;;;;;4390015;28;657948;-70
2023/01/26 13:06:17;;;;;;;48.17;20.33;;;1.60;99.90;;;;;;4422547;28;657178;-69
2023/01/26 13:09:19;;;;;;;41.47;19.47;;;1.60;99.90;;;;;;4412207;28;657789;-70
2023/01/26 13:12:28;;;;;;;42.83;20.63;;;1.70;99.90;;;;;;4396012;28;657635;-69
2023/01/26 13:15:16;;;;;;;47.07;19.27;;;1.70;99.90;;;;;;4391041;28;658022;-69
2023/01/26 13:18:03;;;;;;;49.27;21.00;;;1.50;99.90;;;;;;4437154;28;658623;-70
2023/01/26 13:20:51;;;;;;;44.27;19.97;;;1.50;99.90;;;;;;4418912;28;659340;-69
2023/01/26 13:23:40;;;;;;;49.17;19.43;;;1.50;99.90;;;;;;4444958;28;657973;-69
2023/01/26 13:26:52;;;;;;;39.50;19.53;;;1.50;99.90;;;;;;4401624;28;659513;-69
2023/01/26 13:29:53;;;;;;;45.70;18.63;;;1.40;99.90;;;;;;4435584;28;657468;-69
2023/01/26 13:33:01;;;;;;;43.57;19.37;;;1.40;99.90;;;;;;4389177;28;657407;-69
2023/01/26 13:35:49;;;;;;;42.80;19.73;;;1.30;99.90;;;;;;4412259;28;657636;-69
2023/01/26 13:38:39;;;;;;;45.63;19.83;;;1.40;99.90;;;;;;4412088;28;658751;-69
2023/01/26 13:41:26;;;;;;;47.00;20.03;;;1.40;99.90;;;;;;4418570;28;658263;-69
2023/01/26 13:44:17;;;;;;;42.13;19.20;;;1.40;99.90;;;;;;4440631;28;659155;-69
2023/01/26 13:47:07;;;;;;;43.60;20.23;;;1.40;99.90;;;;;;4422506;28;657905;-69
2023/01/26 13:49:54;;;;;;;49.07;20.33;;;1.40;99.90;;;;;;4412416;28;659140;-69
2023/01/26 13:52:42;;;;;;;42.40;20.03;;;1.40;99.90;;;;;;4416052;28;657528;-69
2023/01/26 13:55:30;;;;;;;44.07;20.43;;;1.40;99.90;;;;;;4439917;28;658618;-63
2023/01/26 13:58:18;;;;;;;45.67;20.40;;;1.40;99.90;;;;;;4414436;28;658231;-63
2023/01/26 14:01:11;;;;;;;41.93;19.90;;;1.40;99.90;;;;;;4412680;28;658005;-63
2023/01/26 14:04:05;;;;;;;45.50;20.50;;;1.30;99.90;;;;;;4426211;28;657528;-63
2023/01/26 14:06:55;;;;;;;43.33;20.60;;;1.20;99.90;;;;;;4389154;28;657992;-62
2023/01/26 14:09:44;;;;;;;48.03;21.73;;;1.20;99.90;;;;;;4409958;28;659159;-62
2023/01/26 14:12:33;;;;;;;47.22;21.63;;;1.10;99.90;;;;;;4420318;28;657505;-63
2023/01/26 14:15:22;;;;;;;49.43;22.00;;;1.10;99.90;;;;;;4425700;28;658040;-62
2023/01/26 14:18:20;;;;;;;53.90;22.27;;;1.10;99.90;;;;;;4444668;28;658394;-62
2023/01/26 14:21:16;;;;;;;46.03;20.80;;;1.00;99.90;;;;;;4421813;28;658240;-62
2023/01/26 14:24:08;;;;;;;48.43;21.47;;;1.00;99.90;;;;;;4426540;28;657848;-62
2023/01/26 14:26:55;;;;;;;48.93;19.83;;;0.80;99.90;;;;;;4397905;28;660297;-63
2023/01/26 14:29:42;;;;;;;46.03;21.27;;;0.70;99.90;;;;;;4443377;28;658987;-62
2023/01/26 14:32:30;;;;;;;45.53;21.60;;;0.70;99.90;;;;;;4438751;28;657835;-63
2023/01/26 14:35:21;;;;;;;47.00;21.37;;;0.60;99.90;;;;;;4435996;28;658268;-63
2023/01/26 14:38:16;;;;;;;52.10;23.20;;;0.60;99.90;;;;;;4413864;28;659260;-62
2023/01/26 14:41:04;;;;;;;56.07;23.53;;;0.50;99.90;;;;;;4414064;28;658383;-63
2023/01/26 14:43:51;;;;;;;54.57;23.87;;;0.50;99.90;;;;;;4416739;28;657452;-63
2023/01/26 14:46:42;;;;;;;59.93;25.70;;;0.40;99.90;;;;;;4423935;28;657344;-63
2023/01/26 14:49:42;;;;;;;53.90;24.70;;;0.40;99.90;;;;;;4440309;28;658001;-63
2023/01/26 14:52:33;;;;;;;63.50;25.90;;;0.40;99.90;;;;;;4415860;28;657900;-63
2023/01/26 14:55:22;;;;;;;59.90;24.53;;;0.40;99.90;;;;;;4393102;28;658563;-63
2023/01/26 14:58:14;;;;;;;58.30;24.77;;;0.30;99.90;;;;;;4437675;28;659774;-63
2023/01/26 15:01:01;;;;;;;54.47;24.17;;;0.30;99.90;;;;;;4406698;28;657850;-62